Whiteman Air Force Base
KSZL : now visible

Airfield :











YOU CAN JOIN US ON...

 
LOGIN :

Register | Disclaimer

   EN    FR    IT 

 









Legend :    VFR   Marginal VFR   IFR   Intensive IFR   Very Intensive IFR
Visi :
Ceiling :
>= 8 km
>= 3000ft
5 to 8 km
1000 to 3000 ft
1500m to 5 km
500 to 1000 ft
800 to 1500m
200 to 500 ft
< 800m
< 200 ft
Symbols :   Thunderstorms  Fog  Heavy snow  Heavy precipitations  Wind > 20 kt






- Airport Elevation : 870 ft


KSZL - Whiteman Air Force Base

CURRENT METAR :
  • 041455Z 16003KT 10SM BKN180 M02/M07 A3028 RMK AO2A SLP267 T10201067 57010 $

EXPIRED METARs :
  • 041355Z 18006KT 10SM BKN200 M04/M08 A3028 RMK AO2A SLP268 T10451076 $
  • 041255Z 17007KT 10SM BKN200 M04/M08 A3030 RMK AO2A SLP274 T10421080 $

TAF TAF KSZL
Valid from the 04 at 11:00 until the 05 at 17:00 UTC


041100Z 0411/0517 VRB06KT 9999 BKN200 QNH3035INS
BECMG 0414/0415 20008KT 9999 OVC200 QNH3012INS
BECMG 0422/0423 VRB06KT 9999 SKC QNH2987INS
BECMG 0514/0515 18008KT 9999 BKN020 QNH2984INS TX07/0421Z TNM04/0411Z
KZKC FIR / North America



MET'MAP, your aeronautical weather chart ! - Copyright ORBIFLY December 2007 - Disclaimer

ORBIFLY MET'MAP TEAM :

Programming & Development : Alexandra Zaïnal
Original concept : Baudouin d'Aumeries
Technical & hardware support : Manuel Goepfert
Assistance : Marc-Olivier Méhu




SOURCES & CREDITS :

   NOAA       Earth
Advisory